createdAt,value
2017-11-26T00:02:07.494Z,15.70
2017-11-26T00:04:36.250Z,11.20
2017-11-26T00:07:05.011Z,14.43
2017-11-26T00:09:33.479Z,15.17
2017-11-26T00:12:02.089Z,16.90
2017-11-26T00:19:54.068Z,12.57
2017-11-26T00:22:22.482Z,11.70
2017-11-26T00:24:50.894Z,16.60
2017-11-26T00:27:19.538Z,12.77
2017-11-26T00:29:47.963Z,13.20
2017-11-26T00:32:18.012Z,12.70
2017-11-26T00:34:46.540Z,11.30
2017-11-26T00:37:14.982Z,13.50
2017-11-26T00:39:43.444Z,13.80
2017-11-26T00:42:12.150Z,15.77
2017-11-26T00:44:40.617Z,13.33
2017-11-26T00:47:09.064Z,14.83
2017-11-26T00:49:39.272Z,13.37
2017-11-26T00:52:07.749Z,13.00
2017-11-26T00:54:37.038Z,10.90
2017-11-26T00:57:05.577Z,12.40
2017-11-26T00:59:34.000Z,13.90
2017-11-26T01:02:03.305Z,11.30
2017-11-26T01:07:20.201Z,12.20
2017-11-26T01:09:48.622Z,11.43
2017-11-26T01:12:17.070Z,9.87
2017-11-26T01:14:45.580Z,12.90
2017-11-26T01:17:15.797Z,17.13
2017-11-26T01:19:44.291Z,14.90
2017-11-26T01:22:12.788Z,14.60
2017-11-26T01:24:41.312Z,21.43
2017-11-26T01:27:09.792Z,14.43
2017-11-26T01:29:38.435Z,16.07
2017-11-26T01:32:06.802Z,17.60
2017-11-26T01:34:35.411Z,16.80
2017-11-26T01:37:04.289Z,14.47
2017-11-26T01:39:33.884Z,18.53
2017-11-26T01:42:02.395Z,13.90
2017-11-26T01:44:34.378Z,15.73
2017-11-26T01:47:02.833Z,20.47
2017-11-26T01:49:31.440Z,21.10
2017-11-26T01:51:59.981Z,19.07
2017-11-26T01:54:28.351Z,17.80
2017-11-26T01:56:56.828Z,24.63
2017-11-26T01:59:25.265Z,21.27
2017-11-26T02:01:53.600Z,15.37
2017-11-26T02:04:22.018Z,17.87
2017-11-26T02:06:50.486Z,16.53
2017-11-26T02:09:18.948Z,18.57
2017-11-26T02:11:47.436Z,15.87
2017-11-26T02:14:15.906Z,15.20
2017-11-26T02:16:44.432Z,18.30
2017-11-26T02:19:12.891Z,19.20
2017-11-26T02:21:41.390Z,20.03
2017-11-26T02:24:09.808Z,18.47
2017-11-26T02:26:38.218Z,20.20
2017-11-26T02:29:06.608Z,18.77
2017-11-26T02:31:46.796Z,19.87
2017-11-26T02:37:35.443Z,21.10
2017-11-26T02:40:03.866Z,17.07
2017-11-26T02:42:32.385Z,17.13
2017-11-26T02:45:00.851Z,20.63
2017-11-26T02:47:29.307Z,19.70
2017-11-26T02:49:57.681Z,20.97
2017-11-26T02:52:26.137Z,18.43
2017-11-26T02:54:54.529Z,19.30
2017-11-26T02:57:22.976Z,17.07
2017-11-26T02:59:51.405Z,15.17
2017-11-26T03:02:19.846Z,16.70
2017-11-26T03:04:48.210Z,21.07
2017-11-26T03:07:16.687Z,19.70
2017-11-26T03:09:45.235Z,21.47
2017-11-26T03:12:13.681Z,18.40
2017-11-26T03:14:42.124Z,14.33
2017-11-26T03:17:10.559Z,16.47
2017-11-26T03:19:38.981Z,17.60
2017-11-26T03:22:07.387Z,14.23
2017-11-26T03:24:35.872Z,14.33
2017-11-26T03:27:04.586Z,15.00
2017-11-26T03:29:32.978Z,16.60
2017-11-26T03:32:01.352Z,16.30
2017-11-26T03:34:29.710Z,18.47
2017-11-26T03:36:58.149Z,16.90
2017-11-26T03:39:26.552Z,14.40
2017-11-26T03:41:54.962Z,19.23
2017-11-26T03:44:23.398Z,21.10
2017-11-26T03:46:52.007Z,16.57
2017-11-26T03:49:20.537Z,15.33
2017-11-26T03:51:48.931Z,16.67
2017-11-26T03:54:17.406Z,20.20
2017-11-26T03:56:45.854Z,24.20
2017-11-26T03:59:14.284Z,21.10
2017-11-26T04:01:42.718Z,25.13
2017-11-26T04:04:11.202Z,20.60
2017-11-26T04:06:39.594Z,21.70
2017-11-26T04:09:08.059Z,26.23
2017-11-26T04:11:36.471Z,23.40
2017-11-26T04:14:04.898Z,23.90
2017-11-26T04:16:33.419Z,22.20
2017-11-26T04:19:01.845Z,20.53
2017-11-26T04:21:30.245Z,24.93
2017-11-26T04:23:58.729Z,26.60
2017-11-26T04:26:27.271Z,26.80
2017-11-26T04:29:16.469Z,29.87
2017-11-26T04:31:45.038Z,28.37
2017-11-26T04:34:13.462Z,33.73
2017-11-26T04:36:41.884Z,31.90
2017-11-26T04:39:10.381Z,20.57
2017-11-26T04:41:38.765Z,23.27
2017-11-26T04:44:07.275Z,23.77
2017-11-26T04:46:35.671Z,22.03
2017-11-26T04:49:04.103Z,21.27
2017-11-26T04:51:32.523Z,20.97
2017-11-26T04:54:00.926Z,23.10
2017-11-26T04:56:29.364Z,24.33
2017-11-26T04:58:57.804Z,21.07
2017-11-26T05:01:26.474Z,22.13
2017-11-26T05:03:54.852Z,18.50
2017-11-26T05:06:23.267Z,19.43
2017-11-26T05:08:51.655Z,27.97
2017-11-26T05:11:20.140Z,21.90
2017-11-26T05:13:48.490Z,20.30
2017-11-26T05:16:16.876Z,24.97
2017-11-26T05:18:45.310Z,21.57
2017-11-26T05:21:13.783Z,21.33
2017-11-26T05:23:42.162Z,20.43
2017-11-26T05:26:10.567Z,18.23
2017-11-26T05:28:38.967Z,17.00
2017-11-26T05:31:07.377Z,16.83
2017-11-26T05:33:35.966Z,18.40
2017-11-26T05:36:04.441Z,13.13
2017-11-26T05:38:32.834Z,17.37
2017-11-26T05:41:01.255Z,18.17
2017-11-26T05:43:29.685Z,13.80
2017-11-26T05:45:58.148Z,14.13
2017-11-26T05:48:26.655Z,13.97
2017-11-26T05:50:55.109Z,10.70
2017-11-26T05:53:23.518Z,11.13
2017-11-26T05:55:51.958Z,10.17
2017-11-26T05:58:20.381Z,9.87
2017-11-26T06:00:48.802Z,11.23
2017-11-26T06:03:17.180Z,9.90
2017-11-26T06:05:45.709Z,14.10
2017-11-26T06:08:14.243Z,10.43
2017-11-26T06:10:42.723Z,10.67
2017-11-26T06:13:11.158Z,7.23
2017-11-26T06:15:39.549Z,13.60
2017-11-26T06:18:07.947Z,14.23
2017-11-26T06:20:36.447Z,10.37
2017-11-26T06:23:04.888Z,11.90
2017-11-26T06:25:33.243Z,9.13
2017-11-26T06:28:01.653Z,10.10
2017-11-26T06:30:30.196Z,7.80
2017-11-26T06:32:59.177Z,8.50
2017-11-26T06:35:27.675Z,8.60
2017-11-26T06:37:58.678Z,9.93
2017-11-26T06:40:27.902Z,9.80
2017-11-26T06:42:56.638Z,13.43
2017-11-26T06:45:25.253Z,7.93
2017-11-26T06:47:55.812Z,9.67
2017-11-26T06:50:24.418Z,16.20
2017-11-26T06:52:52.872Z,13.90
2017-11-26T06:55:21.321Z,8.53
2017-11-26T06:57:49.740Z,11.70
2017-11-26T07:00:18.091Z,9.00
2017-11-26T07:02:46.562Z,9.23
2017-11-26T07:05:14.887Z,9.63
2017-11-26T07:07:43.449Z,8.57
2017-11-26T07:10:11.807Z,14.60
2017-11-26T07:12:40.402Z,10.73
2017-11-26T07:15:08.848Z,8.70
2017-11-26T07:17:37.306Z,6.23
2017-11-26T07:20:08.142Z,10.07
2017-11-26T07:22:36.479Z,10.57
2017-11-26T07:25:05.160Z,8.33
2017-11-26T07:27:33.558Z,8.30
2017-11-26T07:30:01.945Z,6.03
2017-11-26T07:32:30.579Z,11.17
2017-11-26T07:34:58.932Z,7.70
2017-11-26T07:37:27.418Z,6.73
2017-11-26T07:39:55.812Z,5.70
2017-11-26T07:42:24.328Z,5.00
2017-11-26T07:44:52.754Z,5.07
2017-11-26T07:47:21.224Z,5.60
2017-11-26T07:49:49.687Z,4.00
2017-11-26T07:52:18.006Z,4.93
2017-11-26T07:54:46.415Z,4.53
2017-11-26T07:57:14.803Z,10.87
2017-11-26T07:59:43.249Z,6.33
2017-11-26T08:02:12.074Z,5.20
2017-11-26T08:04:40.679Z,4.10
2017-11-26T08:07:10.047Z,4.07
2017-11-26T08:09:38.552Z,5.73
2017-11-26T08:12:07.040Z,5.07
2017-11-26T08:14:36.409Z,5.00
2017-11-26T08:19:41.252Z,4.30
2017-11-26T08:22:09.732Z,7.13
2017-11-26T08:24:38.171Z,3.30
2017-11-26T08:27:06.736Z,4.40
2017-11-26T08:29:35.287Z,5.57
2017-11-26T08:32:03.740Z,4.07
2017-11-26T08:37:05.557Z,3.87
2017-11-26T08:39:33.985Z,4.77
2017-11-26T08:47:16.803Z,13.10
2017-11-26T08:52:17.853Z,5.30
2017-11-26T08:54:46.277Z,4.67
2017-11-26T08:57:22.164Z,4.97
2017-11-26T08:59:50.643Z,4.53
2017-11-26T09:02:18.978Z,6.50
2017-11-26T09:07:24.386Z,7.93
2017-11-26T09:09:53.533Z,4.53
2017-11-26T09:12:21.986Z,9.70
2017-11-26T09:14:50.431Z,5.50
2017-11-26T09:17:19.341Z,5.13
2017-11-26T09:19:47.745Z,8.10
2017-11-26T09:22:16.068Z,15.90
2017-11-26T09:24:44.515Z,16.23
2017-11-26T09:27:13.034Z,6.40
2017-11-26T09:29:42.502Z,4.60
2017-11-26T09:32:17.584Z,6.07
2017-11-26T09:34:45.938Z,4.50
2017-11-26T09:37:14.488Z,7.77
2017-11-26T09:39:43.254Z,6.37
2017-11-26T09:42:11.950Z,6.20
2017-11-26T09:44:55.083Z,6.20
2017-11-26T09:47:23.812Z,7.30
2017-11-26T09:49:52.213Z,4.77
2017-11-26T09:57:29.415Z,6.37
2017-11-26T09:59:57.876Z,7.93
2017-11-26T10:02:26.249Z,5.67
2017-11-26T10:04:54.599Z,5.60
2017-11-26T10:07:22.915Z,4.67
2017-11-26T10:09:52.238Z,3.47
2017-11-26T10:12:20.655Z,7.90
2017-11-26T10:14:49.007Z,4.23
2017-11-26T10:17:17.388Z,4.53
2017-11-26T10:19:47.096Z,6.03
2017-11-26T10:22:15.449Z,4.00
2017-11-26T10:24:43.841Z,5.70
2017-11-26T10:27:12.288Z,5.03
2017-11-26T10:29:40.622Z,6.07
2017-11-26T10:32:10.019Z,5.80
2017-11-26T10:34:38.400Z,9.50
2017-11-26T10:37:06.820Z,9.73
2017-11-26T10:39:35.201Z,4.37
2017-11-26T10:42:03.946Z,5.30
2017-11-26T10:44:32.368Z,8.17
2017-11-26T10:47:00.798Z,6.33
2017-11-26T10:49:29.318Z,4.57
2017-11-26T10:51:58.999Z,5.67
2017-11-26T10:54:27.332Z,10.00
2017-11-26T10:56:55.726Z,6.33
2017-11-26T10:59:24.314Z,5.20
2017-11-26T11:01:53.337Z,7.83
2017-11-26T11:04:21.725Z,7.40
2017-11-26T11:06:50.200Z,4.93
2017-11-26T11:09:18.563Z,7.93
2017-11-26T11:11:47.020Z,5.13
2017-11-26T11:14:15.837Z,10.10
2017-11-26T11:16:44.172Z,8.43
2017-11-26T11:19:12.525Z,5.53
2017-11-26T11:21:41.287Z,6.17
2017-11-26T11:24:09.731Z,4.80
2017-11-26T11:26:38.223Z,4.87
2017-11-26T11:29:06.598Z,4.00
2017-11-26T11:31:35.063Z,3.60
2017-11-26T11:34:03.487Z,5.07
2017-11-26T11:36:31.967Z,8.87
2017-11-26T11:39:01.945Z,9.03
2017-11-26T11:41:30.301Z,3.93
2017-11-26T11:44:01.969Z,4.20
2017-11-26T11:46:32.970Z,7.70
2017-11-26T11:49:01.403Z,3.73
2017-11-26T11:51:29.792Z,4.37
2017-11-26T11:53:58.188Z,4.57
2017-11-26T11:56:26.563Z,4.37
2017-11-26T11:58:54.921Z,2.70
2017-11-26T12:01:23.362Z,3.47
2017-11-26T12:03:52.100Z,2.40
2017-11-26T12:06:20.660Z,4.13
2017-11-26T12:08:49.309Z,6.47
2017-11-26T12:11:18.017Z,5.80
2017-11-26T12:13:46.397Z,4.30
2017-11-26T12:16:16.408Z,5.17
2017-11-26T12:21:40.692Z,4.60
2017-11-26T12:24:09.200Z,4.53
2017-11-26T12:26:37.698Z,6.77
2017-11-26T12:29:08.301Z,8.80
2017-11-26T12:31:36.699Z,6.10
2017-11-26T12:34:05.196Z,9.93
2017-11-26T12:36:33.617Z,5.10
2017-11-26T12:39:01.963Z,8.27
2017-11-26T12:41:38.096Z,5.63
2017-11-26T12:44:07.511Z,6.23
2017-11-26T12:46:36.009Z,9.17
2017-11-26T12:49:04.535Z,6.03
2017-11-26T12:51:33.019Z,6.33
2017-11-26T12:54:01.479Z,7.17
2017-11-26T12:56:30.163Z,6.00
2017-11-26T12:59:00.411Z,7.60
2017-11-26T13:01:28.910Z,6.27
2017-11-26T13:03:57.325Z,7.13
2017-11-26T13:06:25.675Z,13.90
2017-11-26T13:08:54.185Z,4.70
2017-11-26T13:11:22.571Z,7.00
2017-11-26T13:13:50.950Z,4.33
2017-11-26T13:16:19.289Z,4.70
2017-11-26T13:18:51.655Z,15.27
2017-11-26T13:21:20.227Z,7.67
2017-11-26T13:23:48.703Z,4.60
2017-11-26T13:26:17.480Z,6.07
2017-11-26T13:28:45.898Z,4.30
2017-11-26T13:31:15.012Z,6.07
2017-11-26T13:33:43.482Z,3.40
2017-11-26T13:36:11.825Z,10.60
2017-11-26T13:38:40.245Z,9.43
2017-11-26T13:41:08.800Z,9.27
2017-11-26T13:43:37.198Z,3.20
2017-11-26T13:46:06.107Z,10.33
2017-11-26T13:48:34.745Z,7.37
2017-11-26T13:51:03.142Z,9.37
2017-11-26T13:53:31.543Z,8.13
2017-11-26T13:56:00.283Z,6.20
2017-11-26T13:58:28.957Z,4.53
2017-11-26T14:00:57.377Z,11.83
2017-11-26T14:03:25.780Z,4.67
2017-11-26T14:05:55.001Z,3.00
2017-11-26T14:08:23.452Z,7.83
2017-11-26T14:10:52.624Z,9.33
2017-11-26T14:13:21.023Z,4.03
2017-11-26T14:15:49.727Z,3.63
2017-11-26T14:18:18.157Z,4.73
2017-11-26T14:20:46.583Z,8.00
2017-11-26T14:23:15.046Z,5.00
2017-11-26T14:25:43.415Z,8.33
2017-11-26T14:28:11.940Z,5.40
2017-11-26T14:30:40.286Z,7.70
2017-11-26T14:33:12.383Z,3.70
2017-11-26T14:35:40.871Z,6.20
2017-11-26T14:38:10.448Z,5.77
2017-11-26T14:40:40.413Z,3.17
2017-11-26T14:43:08.944Z,11.23
2017-11-26T14:45:40.968Z,3.33
2017-11-26T14:48:09.445Z,12.33
2017-11-26T14:50:37.743Z,2.90
2017-11-26T14:53:06.186Z,7.83
2017-11-26T14:55:34.980Z,5.77
2017-11-26T14:58:03.376Z,6.40
2017-11-26T15:00:32.865Z,4.27
2017-11-26T15:03:01.307Z,6.17
2017-11-26T15:05:29.764Z,4.90
2017-11-26T15:07:58.199Z,25.77
2017-11-26T15:10:26.639Z,3.40
2017-11-26T15:12:55.058Z,4.17
2017-11-26T15:15:23.637Z,7.60
2017-11-26T15:17:52.550Z,2.93
2017-11-26T15:20:21.387Z,10.37
2017-11-26T15:22:49.809Z,3.60
2017-11-26T15:25:18.204Z,6.00
2017-11-26T15:27:46.582Z,8.10
2017-11-26T15:30:15.318Z,5.60
2017-11-26T15:32:44.292Z,5.30
2017-11-26T15:35:13.856Z,4.50
2017-11-26T15:37:42.635Z,4.27
2017-11-26T15:40:11.208Z,6.50
2017-11-26T15:42:39.788Z,3.17
2017-11-26T15:45:08.278Z,12.30
2017-11-26T15:47:36.976Z,6.23
2017-11-26T15:50:05.511Z,5.43
2017-11-26T15:52:33.883Z,10.43
2017-11-26T15:55:02.526Z,8.33
2017-11-26T15:57:30.895Z,7.67
2017-11-26T15:59:59.248Z,3.43
2017-11-26T16:02:27.596Z,4.40
2017-11-26T16:04:55.935Z,7.00
2017-11-26T16:07:24.339Z,7.23
2017-11-26T16:09:52.805Z,8.73
2017-11-26T16:12:21.291Z,3.37
2017-11-26T16:14:49.930Z,8.33
2017-11-26T16:17:18.357Z,8.00
2017-11-26T16:19:46.795Z,4.47
2017-11-26T16:22:15.227Z,4.87
2017-11-26T16:24:43.790Z,5.40
2017-11-26T16:27:12.243Z,5.10
2017-11-26T16:29:40.766Z,7.00
2017-11-26T16:32:09.303Z,7.93
2017-11-26T16:34:38.023Z,5.70
2017-11-26T16:37:06.510Z,7.93
2017-11-26T16:39:35.058Z,4.27
2017-11-26T16:42:03.704Z,10.67
2017-11-26T16:44:32.086Z,13.90
2017-11-26T16:47:00.437Z,10.43
2017-11-26T16:49:29.115Z,7.87
2017-11-26T16:51:57.509Z,8.73
2017-11-26T16:54:26.012Z,10.63
2017-11-26T16:56:54.517Z,8.93
2017-11-26T16:59:22.981Z,6.63
2017-11-26T17:01:51.329Z,7.43
2017-11-26T17:04:19.959Z,7.33
2017-11-26T17:06:48.321Z,16.50
2017-11-26T17:09:16.769Z,10.20
2017-11-26T17:11:46.205Z,6.63
2017-11-26T17:16:47.189Z,7.33
2017-11-26T17:19:15.589Z,10.00
2017-11-26T17:21:44.390Z,11.80
2017-11-26T17:24:14.689Z,9.70
2017-11-26T17:26:43.215Z,9.80
2017-11-26T17:29:12.018Z,7.13
2017-11-26T17:31:40.375Z,9.20
2017-11-26T17:34:09.280Z,9.50
2017-11-26T17:36:37.791Z,8.67
2017-11-26T17:39:06.136Z,6.00
2017-11-26T17:41:35.624Z,9.87
2017-11-26T17:44:04.015Z,9.10
2017-11-26T17:46:32.782Z,6.50
2017-11-26T17:49:02.857Z,6.80
2017-11-26T17:51:32.041Z,17.90
2017-11-26T17:54:00.536Z,11.57
2017-11-26T17:56:28.966Z,6.73
2017-11-26T17:58:57.358Z,10.10
2017-11-26T18:01:25.767Z,8.63
2017-11-26T18:03:54.155Z,10.93
2017-11-26T18:06:22.953Z,6.07
2017-11-26T18:08:51.817Z,8.83
2017-11-26T18:11:24.122Z,5.40
2017-11-26T18:13:52.518Z,8.80
2017-11-26T18:16:21.849Z,9.67
2017-11-26T18:18:50.289Z,10.67
2017-11-26T18:21:18.775Z,5.30
2017-11-26T18:23:47.122Z,6.17
2017-11-26T18:26:15.627Z,9.37
2017-11-26T18:28:44.000Z,6.70
2017-11-26T18:31:12.341Z,7.47
2017-11-26T18:33:41.104Z,4.37
2017-11-26T18:36:09.491Z,12.23
2017-11-26T18:38:38.050Z,6.33
2017-11-26T18:41:06.536Z,8.47
2017-11-26T18:43:35.611Z,12.50
2017-11-26T18:46:04.271Z,12.10
2017-11-26T18:48:32.658Z,7.93
2017-11-26T18:51:09.599Z,12.53
2017-11-26T18:53:37.988Z,4.83
2017-11-26T18:56:06.502Z,6.30
2017-11-26T18:58:35.530Z,4.53
2017-11-26T19:01:04.593Z,6.97
2017-11-26T19:03:32.979Z,5.17
2017-11-26T19:06:01.327Z,5.70
2017-11-26T19:08:30.044Z,6.23
2017-11-26T19:10:58.496Z,12.70
2017-11-26T19:13:30.213Z,5.90
2017-11-26T19:15:58.607Z,6.57
2017-11-26T19:18:27.267Z,9.50
2017-11-26T19:20:55.788Z,11.10
2017-11-26T19:23:24.178Z,7.80
2017-11-26T19:25:52.844Z,5.73
2017-11-26T19:28:21.411Z,7.40
2017-11-26T19:30:50.270Z,8.20
2017-11-26T19:33:18.648Z,5.80
2017-11-26T19:35:47.075Z,7.50
2017-11-26T19:38:15.437Z,7.53
2017-11-26T19:40:43.794Z,5.87
2017-11-26T19:43:12.155Z,7.77
2017-11-26T19:45:40.521Z,12.43
2017-11-26T19:48:08.959Z,9.33
2017-11-26T19:50:38.406Z,9.83
2017-11-26T19:53:06.860Z,6.30
2017-11-26T19:55:35.332Z,8.57
2017-11-26T19:58:03.714Z,8.93
2017-11-26T20:00:32.189Z,7.80
2017-11-26T20:03:00.598Z,7.57
2017-11-26T20:05:29.241Z,10.17
2017-11-26T20:07:57.697Z,11.60
2017-11-26T20:10:26.089Z,10.10
2017-11-26T20:12:54.525Z,7.93
2017-11-26T20:15:23.039Z,10.23
2017-11-26T20:17:52.050Z,8.50
2017-11-26T20:20:20.403Z,14.50
2017-11-26T20:22:48.763Z,7.43
2017-11-26T20:25:17.164Z,8.13
2017-11-26T20:27:45.539Z,9.90
2017-11-26T20:30:13.880Z,9.80
2017-11-26T20:32:42.282Z,6.13
2017-11-26T20:35:10.677Z,8.60
2017-11-26T20:37:39.040Z,8.30
2017-11-26T20:40:07.469Z,6.70
2017-11-26T20:42:35.973Z,10.47
2017-11-26T20:45:04.556Z,6.63
2017-11-26T20:47:32.996Z,14.70
2017-11-26T20:50:02.169Z,8.70
2017-11-26T20:52:30.551Z,5.00
2017-11-26T20:54:58.992Z,7.10
2017-11-26T20:57:27.377Z,8.30
2017-11-26T20:59:56.041Z,7.20
2017-11-26T21:02:25.068Z,7.90
2017-11-26T21:04:53.561Z,8.43
2017-11-26T21:07:21.975Z,5.07
2017-11-26T21:09:50.488Z,7.00
2017-11-26T21:12:18.877Z,12.13
2017-11-26T21:14:47.206Z,7.37
2017-11-26T21:17:15.714Z,7.20
2017-11-26T21:19:44.079Z,6.00
2017-11-26T21:22:12.470Z,6.90
2017-11-26T21:24:40.775Z,6.43
2017-11-26T21:27:09.202Z,7.63
2017-11-26T21:29:37.768Z,6.90
2017-11-26T21:32:06.152Z,5.43
2017-11-26T21:34:34.729Z,11.00
2017-11-26T21:37:03.314Z,5.70
2017-11-26T21:39:31.706Z,5.07
2017-11-26T21:42:00.179Z,4.90
2017-11-26T21:44:28.526Z,9.23
2017-11-26T21:46:56.926Z,6.47
2017-11-26T21:49:25.323Z,7.30
2017-11-26T21:51:53.726Z,6.87
2017-11-26T21:54:23.066Z,6.20
2017-11-26T21:56:51.440Z,7.50
2017-11-26T21:59:19.911Z,6.57
2017-11-26T22:01:48.230Z,6.77
2017-11-26T22:04:16.669Z,10.00
2017-11-26T22:06:45.113Z,10.07
2017-11-26T22:09:13.586Z,5.20
2017-11-26T22:11:42.107Z,9.23
2017-11-26T22:14:10.560Z,5.83
2017-11-26T22:16:38.896Z,12.03
2017-11-26T22:19:07.335Z,10.00
2017-11-26T22:21:35.709Z,6.83
2017-11-26T22:24:04.022Z,7.50
2017-11-26T22:26:32.898Z,6.73
2017-11-26T22:29:01.280Z,7.53
2017-11-26T22:31:29.743Z,6.03
2017-11-26T22:33:58.134Z,7.60
2017-11-26T22:36:26.511Z,10.43
2017-11-26T22:38:54.972Z,6.20
2017-11-26T22:41:23.325Z,5.90
2017-11-26T22:43:51.804Z,9.27
2017-11-26T22:46:20.201Z,8.73
2017-11-26T22:48:48.842Z,7.50
2017-11-26T22:51:17.222Z,8.30
2017-11-26T22:53:45.569Z,6.73
2017-11-26T22:56:13.928Z,7.37
2017-11-26T22:58:42.238Z,9.43
2017-11-26T23:01:10.588Z,10.60
2017-11-26T23:03:39.038Z,6.97
2017-11-26T23:06:07.372Z,12.43
2017-11-26T23:08:35.800Z,12.63
2017-11-26T23:11:04.161Z,8.80
2017-11-26T23:13:32.898Z,12.83
2017-11-26T23:16:01.275Z,8.07
2017-11-26T23:18:29.702Z,8.63
2017-11-26T23:20:58.034Z,14.40
2017-11-26T23:23:26.459Z,12.03
2017-11-26T23:25:55.078Z,9.53
2017-11-26T23:28:23.434Z,12.67
2017-11-26T23:30:51.768Z,11.57
2017-11-26T23:33:20.416Z,7.47
2017-11-26T23:35:48.770Z,10.40
2017-11-26T23:38:17.099Z,9.03
2017-11-26T23:40:45.506Z,11.70
2017-11-26T23:43:13.808Z,8.70
2017-11-26T23:45:42.153Z,16.13
2017-11-26T23:48:10.503Z,11.30
2017-11-26T23:50:39.069Z,9.53
2017-11-26T23:53:07.410Z,8.70
2017-11-26T23:55:35.764Z,16.60
2017-11-26T23:58:04.160Z,15.10
